sensor_id;sensor_type;location;lat;lon;timestamp;temperature;humidity
60242;SHT30;46103;52.076;113.488;2022-11-15T00:00:49;-6.15;65.63
60242;SHT30;46103;52.076;113.488;2022-11-15T00:04:50;-5.93;65.38
60242;SHT30;46103;52.076;113.488;2022-11-15T00:08:34;-5.76;64.42
60242;SHT30;46103;52.076;113.488;2022-11-15T00:12:11;-5.73;63.18
60242;SHT30;46103;52.076;113.488;2022-11-15T00:15:40;-5.63;63.32
60242;SHT30;46103;52.076;113.488;2022-11-15T00:19:20;-5.46;63.94
60242;SHT30;46103;52.076;113.488;2022-11-15T00:22:46;-5.18;63.34
60242;SHT30;46103;52.076;113.488;2022-11-15T00:26:12;-5.00;62.77
60242;SHT30;46103;52.076;113.488;2022-11-15T00:29:34;-4.88;62.37
60242;SHT30;46103;52.076;113.488;2022-11-15T00:33:05;-4.77;62.28
60242;SHT30;46103;52.076;113.488;2022-11-15T00:36:28;-4.73;61.76
60242;SHT30;46103;52.076;113.488;2022-11-15T00:39:54;-4.66;61.79
60242;SHT30;46103;52.076;113.488;2022-11-15T00:43:18;-4.63;61.51
60242;SHT30;46103;52.076;113.488;2022-11-15T00:46:41;-4.59;61.68
60242;SHT30;46103;52.076;113.488;2022-11-15T00:50:04;-4.63;61.76
60242;SHT30;46103;52.076;113.488;2022-11-15T00:53:25;-4.63;61.77
60242;SHT30;46103;52.076;113.488;2022-11-15T00:56:47;-4.55;61.95
60242;SHT30;46103;52.076;113.488;2022-11-15T01:00:09;-4.49;61.66
60242;SHT30;46103;52.076;113.488;2022-11-15T01:03:33;-4.32;61.74
60242;SHT30;46103;52.076;113.488;2022-11-15T01:06:55;-4.15;61.06
60242;SHT30;46103;52.076;113.488;2022-11-15T01:10:17;-4.04;60.48
60242;SHT30;46103;52.076;113.488;2022-11-15T01:13:39;-3.95;60.16
60242;SHT30;46103;52.076;113.488;2022-11-15T01:17:02;-3.88;59.89
60242;SHT30;46103;52.076;113.488;2022-11-15T01:20:24;-3.87;60.18
60242;SHT30;46103;52.076;113.488;2022-11-15T01:23:46;-3.77;59.93
60242;SHT30;46103;52.076;113.488;2022-11-15T01:27:10;-3.63;59.61
60242;SHT30;46103;52.076;113.488;2022-11-15T01:30:32;-3.53;59.19
60242;SHT30;46103;52.076;113.488;2022-11-15T01:33:55;-3.42;58.58
60242;SHT30;46103;52.076;113.488;2022-11-15T01:37:17;-3.36;57.86
60242;SHT30;46103;52.076;113.488;2022-11-15T01:40:38;-3.58;58.55
60242;SHT30;46103;52.076;113.488;2022-11-15T01:44:38;-3.69;59.68
60242;SHT30;46103;52.076;113.488;2022-11-15T01:48:01;-3.64;59.51
60242;SHT30;46103;52.076;113.488;2022-11-15T01:51:25;-3.42;59.98
60242;SHT30;46103;52.076;113.488;2022-11-15T01:54:55;-3.08;59.73
60242;SHT30;46103;52.076;113.488;2022-11-15T01:58:18;-2.80;58.80
60242;SHT30;46103;52.076;113.488;2022-11-15T02:01:40;-2.53;58.59
60242;SHT30;46103;52.076;113.488;2022-11-15T02:05:03;-2.34;57.56
60242;SHT30;46103;52.076;113.488;2022-11-15T02:08:26;-2.17;57.14
60242;SHT30;46103;52.076;113.488;2022-11-15T02:11:49;-2.01;56.74
60242;SHT30;46103;52.076;113.488;2022-11-15T02:15:12;-1.94;56.22
60242;SHT30;46103;52.076;113.488;2022-11-15T02:18:38;-1.84;55.93
60242;SHT30;46103;52.076;113.488;2022-11-15T02:22:46;-1.86;56.52
60242;SHT30;46103;52.076;113.488;2022-11-15T02:34:35;-1.64;56.61
60242;SHT30;46103;52.076;113.488;2022-11-15T02:39:10;-1.45;56.22
60242;SHT30;46103;52.076;113.488;2022-11-15T02:42:00;-1.21;55.82
60242;SHT30;46103;52.076;113.488;2022-11-15T02:45:37;-0.90;55.05
60242;SHT30;46103;52.076;113.488;2022-11-15T02:48:59;-0.63;54.44
60242;SHT30;46103;52.076;113.488;2022-11-15T02:52:23;-0.40;53.84
60242;SHT30;46103;52.076;113.488;2022-11-15T02:55:49;-0.14;53.09
60242;SHT30;46103;52.076;113.488;2022-11-15T03:03:10;0.27;51.99
60242;SHT30;46103;52.076;113.488;2022-11-15T03:10:08;0.69;50.88
60242;SHT30;46103;52.076;113.488;2022-11-15T03:17:18;0.93;50.05
60242;SHT30;46103;52.076;113.488;2022-11-15T03:20:44;1.02;49.90
60242;SHT30;46103;52.076;113.488;2022-11-15T03:24:08;0.91;50.23
60242;SHT30;46103;52.076;113.488;2022-11-15T03:27:37;0.95;50.48
60242;SHT30;46103;52.076;113.488;2022-11-15T03:31:02;1.02;50.43
60242;SHT30;46103;52.076;113.488;2022-11-15T03:38:19;0.96;50.91
60242;SHT30;46103;52.076;113.488;2022-11-15T03:45:18;1.24;50.84
60242;SHT30;46103;52.076;113.488;2022-11-15T03:48:42;1.34;50.50
60242;SHT30;46103;52.076;113.488;2022-11-15T03:52:05;1.44;50.26
60242;SHT30;46103;52.076;113.488;2022-11-15T03:55:27;1.43;50.36
60242;SHT30;46103;52.076;113.488;2022-11-15T03:58:50;1.51;50.30
60242;SHT30;46103;52.076;113.488;2022-11-15T04:02:12;1.72;49.67
60242;SHT30;46103;52.076;113.488;2022-11-15T04:05:34;1.60;50.12
60242;SHT30;46103;52.076;113.488;2022-11-15T04:08:56;1.62;50.10
60242;SHT30;46103;52.076;113.488;2022-11-15T04:12:18;1.68;49.96
60242;SHT30;46103;52.076;113.488;2022-11-15T04:15:53;1.77;50.19
60242;SHT30;46103;52.076;113.488;2022-11-15T04:19:22;1.88;50.39
60242;SHT30;46103;52.076;113.488;2022-11-15T04:23:05;2.01;50.21
60242;SHT30;46103;52.076;113.488;2022-11-15T04:26:46;2.02;50.33
60242;SHT30;46103;52.076;113.488;2022-11-15T04:30:08;1.99;51.07
60242;SHT30;46103;52.076;113.488;2022-11-15T04:33:31;2.13;51.08
60242;SHT30;46103;52.076;113.488;2022-11-15T04:36:53;2.50;49.31
60242;SHT30;46103;52.076;113.488;2022-11-15T04:40:34;2.68;49.01
60242;SHT30;46103;52.076;113.488;2022-11-15T04:44:00;2.74;48.28
60242;SHT30;46103;52.076;113.488;2022-11-15T04:47:23;2.77;48.04
60242;SHT30;46103;52.076;113.488;2022-11-15T04:50:49;2.96;46.92
60242;SHT30;46103;52.076;113.488;2022-11-15T04:54:12;3.61;45.38
60242;SHT30;46103;52.076;113.488;2022-11-15T04:57:34;3.49;45.59
60242;SHT30;46103;52.076;113.488;2022-11-15T05:00:56;3.24;46.62
60242;SHT30;46103;52.076;113.488;2022-11-15T05:04:19;3.13;47.45
60242;SHT30;46103;52.076;113.488;2022-11-15T05:07:42;3.06;47.83
60242;SHT30;46103;52.076;113.488;2022-11-15T05:11:05;3.09;47.46
60242;SHT30;46103;52.076;113.488;2022-11-15T05:14:27;3.11;47.75
60242;SHT30;46103;52.076;113.488;2022-11-15T05:17:50;3.19;47.27
60242;SHT30;46103;52.076;113.488;2022-11-15T05:21:14;3.29;46.78
60242;SHT30;46103;52.076;113.488;2022-11-15T05:24:36;3.40;46.59
60242;SHT30;46103;52.076;113.488;2022-11-15T05:27:58;3.47;46.31
60242;SHT30;46103;52.076;113.488;2022-11-15T05:31:21;3.63;45.78
60242;SHT30;46103;52.076;113.488;2022-11-15T05:34:44;3.78;45.58
60242;SHT30;46103;52.076;113.488;2022-11-15T05:38:08;3.95;45.48
60242;SHT30;46103;52.076;113.488;2022-11-15T05:44:57;4.22;44.91
60242;SHT30;46103;52.076;113.488;2022-11-15T05:48:20;4.39;44.07
60242;SHT30;46103;52.076;113.488;2022-11-15T05:51:44;4.47;43.97
60242;SHT30;46103;52.076;113.488;2022-11-15T05:55:08;4.61;43.62
60242;SHT30;46103;52.076;113.488;2022-11-15T05:58:33;4.77;43.76
60242;SHT30;46103;52.076;113.488;2022-11-15T06:01:55;4.67;43.37
60242;SHT30;46103;52.076;113.488;2022-11-15T06:05:18;4.42;43.67
60242;SHT30;46103;52.076;113.488;2022-11-15T06:08:40;4.46;43.58
60242;SHT30;46103;52.076;113.488;2022-11-15T06:12:03;4.40;43.69
60242;SHT30;46103;52.076;113.488;2022-11-15T06:15:26;4.36;44.02
60242;SHT30;46103;52.076;113.488;2022-11-15T06:18:49;4.22;44.80
60242;SHT30;46103;52.076;113.488;2022-11-15T06:22:12;4.20;44.72
60242;SHT30;46103;52.076;113.488;2022-11-15T06:25:35;4.25;44.46
60242;SHT30;46103;52.076;113.488;2022-11-15T06:28:57;4.30;44.96
60242;SHT30;46103;52.076;113.488;2022-11-15T06:32:19;4.43;43.80
60242;SHT30;46103;52.076;113.488;2022-11-15T06:35:42;4.43;43.99
60242;SHT30;46103;52.076;113.488;2022-11-15T06:39:05;4.53;44.09
60242;SHT30;46103;52.076;113.488;2022-11-15T06:42:28;4.52;44.49
60242;SHT30;46103;52.076;113.488;2022-11-15T06:45:51;4.50;44.26
60242;SHT30;46103;52.076;113.488;2022-11-15T06:49:14;4.71;44.23
60242;SHT30;46103;52.076;113.488;2022-11-15T06:52:36;4.64;44.27
60242;SHT30;46103;52.076;113.488;2022-11-15T06:56:03;4.67;44.00
60242;SHT30;46103;52.076;113.488;2022-11-15T06:59:26;4.71;43.88
60242;SHT30;46103;52.076;113.488;2022-11-15T07:02:49;4.63;43.71
60242;SHT30;46103;52.076;113.488;2022-11-15T07:06:13;4.52;43.67
60242;SHT30;46103;52.076;113.488;2022-11-15T07:09:37;4.42;44.17
60242;SHT30;46103;52.076;113.488;2022-11-15T07:13:00;4.25;43.88
60242;SHT30;46103;52.076;113.488;2022-11-15T07:16:23;4.22;44.37
60242;SHT30;46103;52.076;113.488;2022-11-15T07:19:46;4.16;44.70
60242;SHT30;46103;52.076;113.488;2022-11-15T07:23:09;4.19;44.64
60242;SHT30;46103;52.076;113.488;2022-11-15T07:26:32;4.23;44.52
60242;SHT30;46103;52.076;113.488;2022-11-15T07:29:55;4.08;44.93
60242;SHT30;46103;52.076;113.488;2022-11-15T07:33:18;3.85;45.70
60242;SHT30;46103;52.076;113.488;2022-11-15T07:36:42;3.51;46.29
60242;SHT30;46103;52.076;113.488;2022-11-15T07:40:06;3.27;46.85
60242;SHT30;46103;52.076;113.488;2022-11-15T07:43:29;3.27;46.91
60242;SHT30;46103;52.076;113.488;2022-11-15T07:46:57;3.26;47.26
60242;SHT30;46103;52.076;113.488;2022-11-15T07:50:19;3.29;46.99
60242;SHT30;46103;52.076;113.488;2022-11-15T07:53:42;3.20;47.35
60242;SHT30;46103;52.076;113.488;2022-11-15T07:57:05;3.05;48.01
60242;SHT30;46103;52.076;113.488;2022-11-15T08:00:29;2.84;48.54
60242;SHT30;46103;52.076;113.488;2022-11-15T08:03:51;2.70;49.04
60242;SHT30;46103;52.076;113.488;2022-11-15T08:07:14;2.64;49.14
60242;SHT30;46103;52.076;113.488;2022-11-15T08:10:38;2.55;49.45
60242;SHT30;46103;52.076;113.488;2022-11-15T08:14:02;2.61;49.28
60242;SHT30;46103;52.076;113.488;2022-11-15T08:17:25;2.68;48.90
60242;SHT30;46103;52.076;113.488;2022-11-15T08:20:48;2.71;48.78
60242;SHT30;46103;52.076;113.488;2022-11-15T08:24:10;2.60;48.18
60242;SHT30;46103;52.076;113.488;2022-11-15T08:27:33;2.50;48.81
60242;SHT30;46103;52.076;113.488;2022-11-15T08:30:55;2.34;49.21
60242;SHT30;46103;52.076;113.488;2022-11-15T08:34:18;2.13;49.87
60242;SHT30;46103;52.076;113.488;2022-11-15T08:37:41;2.03;50.00
60242;SHT30;46103;52.076;113.488;2022-11-15T08:41:04;1.91;50.14
60242;SHT30;46103;52.076;113.488;2022-11-15T08:44:27;1.82;50.40
60242;SHT30;46103;52.076;113.488;2022-11-15T08:47:51;1.75;50.36
60242;SHT30;46103;52.076;113.488;2022-11-15T08:51:15;1.70;50.62
60242;SHT30;46103;52.076;113.488;2022-11-15T08:54:38;1.62;50.78
60242;SHT30;46103;52.076;113.488;2022-11-15T08:58:00;1.54;51.24
60242;SHT30;46103;52.076;113.488;2022-11-15T09:01:24;1.37;51.75
60242;SHT30;46103;52.076;113.488;2022-11-15T09:04:46;1.27;52.11
60242;SHT30;46103;52.076;113.488;2022-11-15T09:08:08;1.19;52.22
60242;SHT30;46103;52.076;113.488;2022-11-15T09:11:50;1.15;52.44
60242;SHT30;46103;52.076;113.488;2022-11-15T09:15:20;1.19;52.38
60242;SHT30;46103;52.076;113.488;2022-11-15T09:18:44;1.07;52.71
60242;SHT30;46103;52.076;113.488;2022-11-15T09:22:07;1.00;53.01
60242;SHT30;46103;52.076;113.488;2022-11-15T09:25:32;0.93;53.37
60242;SHT30;46103;52.076;113.488;2022-11-15T09:28:55;0.85;53.67
60242;SHT30;46103;52.076;113.488;2022-11-15T09:32:18;0.79;54.01
60242;SHT30;46103;52.076;113.488;2022-11-15T09:35:41;0.81;54.10
60242;SHT30;46103;52.076;113.488;2022-11-15T09:39:06;0.76;54.19
60242;SHT30;46103;52.076;113.488;2022-11-15T09:47:30;0.76;54.32
60242;SHT30;46103;52.076;113.488;2022-11-15T09:50:44;0.75;54.51
60242;SHT30;46103;52.076;113.488;2022-11-15T09:57:33;0.75;54.49
60242;SHT30;46103;52.076;113.488;2022-11-15T10:00:44;0.69;54.64
60242;SHT30;46103;52.076;113.488;2022-11-15T10:03:55;0.69;54.74
60242;SHT30;46103;52.076;113.488;2022-11-15T10:10:51;0.71;54.45
60242;SHT30;46103;52.076;113.488;2022-11-15T10:14:22;0.62;54.47
60242;SHT30;46103;52.076;113.488;2022-11-15T10:21:23;0.46;54.70
60242;SHT30;46103;52.076;113.488;2022-11-15T10:24:35;0.37;54.98
60242;SHT30;46103;52.076;113.488;2022-11-15T10:27:44;0.30;55.24
60242;SHT30;46103;52.076;113.488;2022-11-15T10:30:53;0.24;55.51
60242;SHT30;46103;52.076;113.488;2022-11-15T10:34:21;0.20;55.69
60242;SHT30;46103;52.076;113.488;2022-11-15T10:37:34;0.17;55.75
60242;SHT30;46103;52.076;113.488;2022-11-15T10:40:41;0.16;55.68
60242;SHT30;46103;52.076;113.488;2022-11-15T10:44:19;0.09;55.97
60242;SHT30;46103;52.076;113.488;2022-11-15T10:50:45;-0.08;56.55
60242;SHT30;46103;52.076;113.488;2022-11-15T10:53:59;-0.11;56.58
60242;SHT30;46103;52.076;113.488;2022-11-15T10:57:18;-0.17;57.18
60242;SHT30;46103;52.076;113.488;2022-11-15T11:00:33;-0.22;57.36
60242;SHT30;46103;52.076;113.488;2022-11-15T11:03:45;-0.30;57.71
60242;SHT30;46103;52.076;113.488;2022-11-15T11:07:01;-0.33;58.03
60242;SHT30;46103;52.076;113.488;2022-11-15T11:13:39;-0.39;58.45
60242;SHT30;46103;52.076;113.488;2022-11-15T11:20:22;-0.32;58.54
60242;SHT30;46103;52.076;113.488;2022-11-15T11:27:36;-0.18;58.18
60242;SHT30;46103;52.076;113.488;2022-11-15T11:30:58;-0.21;58.16
60242;SHT30;46103;52.076;113.488;2022-11-15T11:37:49;-0.23;58.36
60242;SHT30;46103;52.076;113.488;2022-11-15T11:44:18;-0.26;58.46
60242;SHT30;46103;52.076;113.488;2022-11-15T11:47:35;-0.32;58.45
60242;SHT30;46103;52.076;113.488;2022-11-15T11:50:42;-0.39;58.67
60242;SHT30;46103;52.076;113.488;2022-11-15T11:54:03;-0.49;58.94
60242;SHT30;46103;52.076;113.488;2022-11-15T11:57:16;-0.56;59.08
60242;SHT30;46103;52.076;113.488;2022-11-15T12:00:27;-0.65;59.35
60242;SHT30;46103;52.076;113.488;2022-11-15T12:10:14;-0.66;59.59
60242;SHT30;46103;52.076;113.488;2022-11-15T12:13:23;-0.59;59.51
60242;SHT30;46103;52.076;113.488;2022-11-15T12:16:31;-0.59;59.45
60242;SHT30;46103;52.076;113.488;2022-11-15T12:19:36;-0.55;59.45
60242;SHT30;46103;52.076;113.488;2022-11-15T12:26:06;-0.57;59.19
60242;SHT30;46103;52.076;113.488;2022-11-15T12:29:17;-0.59;59.80
60242;SHT30;46103;52.076;113.488;2022-11-15T12:32:35;-0.50;59.35
60242;SHT30;46103;52.076;113.488;2022-11-15T12:35:42;-0.55;59.39
60242;SHT30;46103;52.076;113.488;2022-11-15T12:45:24;-0.66;59.86
60242;SHT30;46103;52.076;113.488;2022-11-15T12:54:56;-0.73;60.98
60242;SHT30;46103;52.076;113.488;2022-11-15T12:58:44;-0.73;60.62
60242;SHT30;46103;52.076;113.488;2022-11-15T13:01:59;-0.80;60.69
60242;SHT30;46103;52.076;113.488;2022-11-15T13:08:53;-0.94;60.90
60242;SHT30;46103;52.076;113.488;2022-11-15T13:12:02;-1.00;61.57
60242;SHT30;46103;52.076;113.488;2022-11-15T13:18:53;-1.05;61.74
60242;SHT30;46103;52.076;113.488;2022-11-15T13:22:12;-1.07;61.83
60242;SHT30;46103;52.076;113.488;2022-11-15T13:26:12;-1.09;62.57
60242;SHT30;46103;52.076;113.488;2022-11-15T13:29:21;-1.18;62.58
60242;SHT30;46103;52.076;113.488;2022-11-15T13:32:27;-1.18;63.00
60242;SHT30;46103;52.076;113.488;2022-11-15T13:35:40;-1.12;62.73
60242;SHT30;46103;52.076;113.488;2022-11-15T13:38:58;-1.08;62.66
60242;SHT30;46103;52.076;113.488;2022-11-15T13:42:19;-0.98;62.34
60242;SHT30;46103;52.076;113.488;2022-11-15T13:45:25;-0.94;62.01
60242;SHT30;46103;52.076;113.488;2022-11-15T13:48:32;-0.94;62.02
60242;SHT30;46103;52.076;113.488;2022-11-15T13:58:05;-1.24;62.74
60242;SHT30;46103;52.076;113.488;2022-11-15T14:01:19;-1.32;63.06
60242;SHT30;46103;52.076;113.488;2022-11-15T14:04:28;-1.35;63.41
60242;SHT30;46103;52.076;113.488;2022-11-15T14:08:41;-1.31;63.75
60242;SHT30;46103;52.076;113.488;2022-11-15T14:11:21;-1.27;63.48
60242;SHT30;46103;52.076;113.488;2022-11-15T14:14:45;-1.36;63.24
60242;SHT30;46103;52.076;113.488;2022-11-15T14:17:53;-1.36;63.58
60242;SHT30;46103;52.076;113.488;2022-11-15T14:21:07;-1.55;63.20
60242;SHT30;46103;52.076;113.488;2022-11-15T14:24:18;-1.71;63.76
60242;SHT30;46103;52.076;113.488;2022-11-15T14:27:33;-1.84;64.27
60242;SHT30;46103;52.076;113.488;2022-11-15T14:30:39;-1.89;65.26
60242;SHT30;46103;52.076;113.488;2022-11-15T14:33:46;-1.84;64.77
60242;SHT30;46103;52.076;113.488;2022-11-15T14:36:53;-1.79;65.19
60242;SHT30;46103;52.076;113.488;2022-11-15T14:39:58;-1.74;64.85
60242;SHT30;46103;52.076;113.488;2022-11-15T14:43:04;-1.74;64.77
60242;SHT30;46103;52.076;113.488;2022-11-15T14:46:11;-1.76;64.69
60242;SHT30;46103;52.076;113.488;2022-11-15T14:49:15;-1.89;64.49
60242;SHT30;46103;52.076;113.488;2022-11-15T14:52:29;-2.00;65.23
60242;SHT30;46103;52.076;113.488;2022-11-15T14:55:38;-2.12;65.33
60242;SHT30;46103;52.076;113.488;2022-11-15T14:58:46;-2.18;65.55
60242;SHT30;46103;52.076;113.488;2022-11-15T15:01:51;-2.24;65.76
60242;SHT30;46103;52.076;113.488;2022-11-15T15:04:59;-2.29;65.83
60242;SHT30;46103;52.076;113.488;2022-11-15T15:08:06;-2.32;65.68
60242;SHT30;46103;52.076;113.488;2022-11-15T15:11:14;-2.39;65.94
60242;SHT30;46103;52.076;113.488;2022-11-15T15:14:19;-2.41;66.12
60242;SHT30;46103;52.076;113.488;2022-11-15T15:17:23;-2.38;66.26
60242;SHT30;46103;52.076;113.488;2022-11-15T15:20:27;-2.35;66.43
60242;SHT30;46103;52.076;113.488;2022-11-15T15:23:34;-2.36;66.38
60242;SHT30;46103;52.076;113.488;2022-11-15T15:26:40;-2.34;66.29
60242;SHT30;46103;52.076;113.488;2022-11-15T15:29:44;-2.35;66.08
60242;SHT30;46103;52.076;113.488;2022-11-15T15:32:48;-2.31;66.58
60242;SHT30;46103;52.076;113.488;2022-11-15T15:35:53;-2.32;66.08
60242;SHT30;46103;52.076;113.488;2022-11-15T15:38:58;-2.31;66.58
60242;SHT30;46103;52.076;113.488;2022-11-15T15:42:05;-2.36;65.80
60242;SHT30;46103;52.076;113.488;2022-11-15T15:45:13;-2.57;66.84
60242;SHT30;46103;52.076;113.488;2022-11-15T15:48:21;-2.62;67.36
60242;SHT30;46103;52.076;113.488;2022-11-15T15:52:03;-2.67;66.95
60242;SHT30;46103;52.076;113.488;2022-11-15T15:55:09;-2.74;67.84
60242;SHT30;46103;52.076;113.488;2022-11-15T15:58:17;-2.76;67.19
60242;SHT30;46103;52.076;113.488;2022-11-15T16:01:26;-2.88;68.17
60242;SHT30;46103;52.076;113.488;2022-11-15T16:04:45;-2.97;68.13
60242;SHT30;46103;52.076;113.488;2022-11-15T16:07:51;-3.05;68.03
60242;SHT30;46103;52.076;113.488;2022-11-15T16:11:00;-3.16;68.59
60242;SHT30;46103;52.076;113.488;2022-11-15T16:14:10;-3.21;69.80
60242;SHT30;46103;52.076;113.488;2022-11-15T16:17:29;-3.01;69.43
60242;SHT30;46103;52.076;113.488;2022-11-15T16:20:41;-2.87;68.76
60242;SHT30;46103;52.076;113.488;2022-11-15T16:24:03;-2.79;68.53
60242;SHT30;46103;52.076;113.488;2022-11-15T16:27:18;-2.72;68.27
60242;SHT30;46103;52.076;113.488;2022-11-15T16:30:26;-2.74;67.88
60242;SHT30;46103;52.076;113.488;2022-11-15T16:33:37;-2.80;68.07
60242;SHT30;46103;52.076;113.488;2022-11-15T16:36:47;-2.76;68.24
60242;SHT30;46103;52.076;113.488;2022-11-15T16:39:57;-2.76;68.07
60242;SHT30;46103;52.076;113.488;2022-11-15T16:43:10;-2.73;67.81
60242;SHT30;46103;52.076;113.488;2022-11-15T16:46:26;-2.73;68.19
60242;SHT30;46103;52.076;113.488;2022-11-15T16:49:37;-2.67;68.07
60242;SHT30;46103;52.076;113.488;2022-11-15T16:52:46;-2.70;67.93
60242;SHT30;46103;52.076;113.488;2022-11-15T16:55:55;-2.84;67.37
60242;SHT30;46103;52.076;113.488;2022-11-15T16:59:04;-2.94;67.91
60242;SHT30;46103;52.076;113.488;2022-11-15T17:02:14;-3.19;66.65
60242;SHT30;46103;52.076;113.488;2022-11-15T17:05:23;-3.43;66.95
60242;SHT30;46103;52.076;113.488;2022-11-15T17:08:33;-3.66;67.95
60242;SHT30;46103;52.076;113.488;2022-11-15T17:11:41;-3.77;68.37
60242;SHT30;46103;52.076;113.488;2022-11-15T17:14:52;-3.83;68.72
60242;SHT30;46103;52.076;113.488;2022-11-15T17:18:02;-3.91;69.43
60242;SHT30;46103;52.076;113.488;2022-11-15T17:21:14;-3.88;71.24
60242;SHT30;46103;52.076;113.488;2022-11-15T17:24:24;-3.79;70.78
60242;SHT30;46103;52.076;113.488;2022-11-15T17:27:33;-3.77;70.88
60242;SHT30;46103;52.076;113.488;2022-11-15T17:30:43;-3.77;69.84
60242;SHT30;46103;52.076;113.488;2022-11-15T17:33:52;-3.71;70.91
60242;SHT30;46103;52.076;113.488;2022-11-15T17:37:03;-3.69;70.99
60242;SHT30;46103;52.076;113.488;2022-11-15T17:40:15;-3.67;70.90
60242;SHT30;46103;52.076;113.488;2022-11-15T17:43:25;-3.64;70.62
60242;SHT30;46103;52.076;113.488;2022-11-15T17:46:34;-3.69;70.42
60242;SHT30;46103;52.076;113.488;2022-11-15T17:49:44;-3.71;71.39
60242;SHT30;46103;52.076;113.488;2022-11-15T17:52:52;-3.69;71.22
60242;SHT30;46103;52.076;113.488;2022-11-15T17:56:27;-3.70;70.17
60242;SHT30;46103;52.076;113.488;2022-11-15T17:59:36;-3.83;69.62
60242;SHT30;46103;52.076;113.488;2022-11-15T18:02:45;-3.95;69.10
60242;SHT30;46103;52.076;113.488;2022-11-15T18:05:54;-4.09;68.71
60242;SHT30;46103;52.076;113.488;2022-11-15T18:09:04;-4.28;69.19
60242;SHT30;46103;52.076;113.488;2022-11-15T18:12:14;-4.41;68.67
60242;SHT30;46103;52.076;113.488;2022-11-15T18:15:24;-4.65;69.00
60242;SHT30;46103;52.076;113.488;2022-11-15T18:18:34;-4.79;70.30
60242;SHT30;46103;52.076;113.488;2022-11-15T18:21:44;-4.80;70.74
60242;SHT30;46103;52.076;113.488;2022-11-15T18:25:04;-4.87;70.34
60242;SHT30;46103;52.076;113.488;2022-11-15T18:28:13;-4.91;70.57
60242;SHT30;46103;52.076;113.488;2022-11-15T18:31:26;-5.04;71.84
60242;SHT30;46103;52.076;113.488;2022-11-15T18:34:35;-5.07;72.58
60242;SHT30;46103;52.076;113.488;2022-11-15T18:37:44;-5.11;72.35
60242;SHT30;46103;52.076;113.488;2022-11-15T18:40:55;-5.29;72.16
60242;SHT30;46103;52.076;113.488;2022-11-15T18:44:04;-5.31;72.76
60242;SHT30;46103;52.076;113.488;2022-11-15T18:47:14;-5.35;72.18
60242;SHT30;46103;52.076;113.488;2022-11-15T18:50:24;-5.35;70.76
60242;SHT30;46103;52.076;113.488;2022-11-15T18:53:35;-5.42;71.16
60242;SHT30;46103;52.076;113.488;2022-11-15T18:56:44;-5.46;69.61
60242;SHT30;46103;52.076;113.488;2022-11-15T18:59:53;-5.58;69.50
60242;SHT30;46103;52.076;113.488;2022-11-15T19:03:03;-5.67;69.58
60242;SHT30;46103;52.076;113.488;2022-11-15T19:06:19;-5.79;69.26
60242;SHT30;46103;52.076;113.488;2022-11-15T19:09:30;-5.91;69.34
60242;SHT30;46103;52.076;113.488;2022-11-15T19:12:42;-5.98;70.39
60242;SHT30;46103;52.076;113.488;2022-11-15T19:15:59;-6.11;67.89
60242;SHT30;46103;52.076;113.488;2022-11-15T19:19:06;-6.35;68.57
60242;SHT30;46103;52.076;113.488;2022-11-15T19:22:12;-6.56;69.14
60242;SHT30;46103;52.076;113.488;2022-11-15T19:25:17;-6.83;69.66
60242;SHT30;46103;52.076;113.488;2022-11-15T19:28:24;-7.07;70.95
60242;SHT30;46103;52.076;113.488;2022-11-15T19:31:30;-7.25;72.17
60242;SHT30;46103;52.076;113.488;2022-11-15T19:34:36;-7.43;73.20
60242;SHT30;46103;52.076;113.488;2022-11-15T19:37:45;-7.54;73.77
60242;SHT30;46103;52.076;113.488;2022-11-15T19:40:57;-7.56;74.03
60242;SHT30;46103;52.076;113.488;2022-11-15T19:44:04;-7.60;73.87
60242;SHT30;46103;52.076;113.488;2022-11-15T19:47:10;-7.63;74.26
60242;SHT30;46103;52.076;113.488;2022-11-15T19:50:16;-7.54;73.83
60242;SHT30;46103;52.076;113.488;2022-11-15T19:53:22;-7.47;73.50
60242;SHT30;46103;52.076;113.488;2022-11-15T19:56:35;-7.39;72.64
60242;SHT30;46103;52.076;113.488;2022-11-15T19:59:40;-7.31;71.94
60242;SHT30;46103;52.076;113.488;2022-11-15T20:02:45;-7.28;71.83
60242;SHT30;46103;52.076;113.488;2022-11-15T20:05:51;-7.22;71.73
60242;SHT30;46103;52.076;113.488;2022-11-15T20:08:57;-7.26;71.01
60242;SHT30;46103;52.076;113.488;2022-11-15T20:12:03;-7.25;70.22
60242;SHT30;46103;52.076;113.488;2022-11-15T20:15:09;-7.31;72.12
60242;SHT30;46103;52.076;113.488;2022-11-15T20:18:15;-7.35;72.78
60242;SHT30;46103;52.076;113.488;2022-11-15T20:21:21;-7.36;73.10
60242;SHT30;46103;52.076;113.488;2022-11-15T20:24:27;-7.28;72.35
60242;SHT30;46103;52.076;113.488;2022-11-15T20:27:33;-7.23;71.75
60242;SHT30;46103;52.076;113.488;2022-11-15T20:30:38;-7.18;71.08
60242;SHT30;46103;52.076;113.488;2022-11-15T20:33:44;-7.14;70.94
60242;SHT30;46103;52.076;113.488;2022-11-15T20:36:50;-7.19;72.63
60242;SHT30;46103;52.076;113.488;2022-11-15T20:39:56;-7.16;71.75
60242;SHT30;46103;52.076;113.488;2022-11-15T20:43:01;-7.08;71.22
60242;SHT30;46103;52.076;113.488;2022-11-15T20:46:07;-7.04;71.06
60242;SHT30;46103;52.076;113.488;2022-11-15T20:49:14;-7.05;71.38
60242;SHT30;46103;52.076;113.488;2022-11-15T20:52:20;-7.00;70.59
60242;SHT30;46103;52.076;113.488;2022-11-15T20:55:28;-7.05;70.69
60242;SHT30;46103;52.076;113.488;2022-11-15T20:58:35;-7.14;71.02
60242;SHT30;46103;52.076;113.488;2022-11-15T21:01:45;-7.18;69.21
60242;SHT30;46103;52.076;113.488;2022-11-15T21:04:54;-7.25;68.00
60242;SHT30;46103;52.076;113.488;2022-11-15T21:08:03;-7.38;67.34
60242;SHT30;46103;52.076;113.488;2022-11-15T21:11:11;-7.47;67.00
60242;SHT30;46103;52.076;113.488;2022-11-15T21:14:37;-7.56;66.49
60242;SHT30;46103;52.076;113.488;2022-11-15T21:17:45;-7.64;67.79
60242;SHT30;46103;52.076;113.488;2022-11-15T21:20:54;-7.70;67.36
60242;SHT30;46103;52.076;113.488;2022-11-15T21:24:03;-7.74;68.76
60242;SHT30;46103;52.076;113.488;2022-11-15T21:27:12;-7.77;68.33
60242;SHT30;46103;52.076;113.488;2022-11-15T21:30:21;-7.74;68.18
60242;SHT30;46103;52.076;113.488;2022-11-15T21:33:28;-7.81;68.17
60242;SHT30;46103;52.076;113.488;2022-11-15T21:36:38;-7.86;66.54
60242;SHT30;46103;52.076;113.488;2022-11-15T21:39:46;-7.90;66.74
60242;SHT30;46103;52.076;113.488;2022-11-15T21:42:54;-7.97;67.88
60242;SHT30;46103;52.076;113.488;2022-11-15T21:46:05;-7.94;67.99
60242;SHT30;46103;52.076;113.488;2022-11-15T21:49:13;-7.93;68.12
60242;SHT30;46103;52.076;113.488;2022-11-15T21:52:19;-7.99;68.14
60242;SHT30;46103;52.076;113.488;2022-11-15T21:55:25;-8.05;67.58
60242;SHT30;46103;52.076;113.488;2022-11-15T21:58:31;-8.05;67.96